createdAt,value
2022-10-11T00:00:53.922Z,15.42
2022-10-11T00:03:33.971Z,15.43
2022-10-11T00:06:03.615Z,15.42
2022-10-11T00:08:33.174Z,15.41
2022-10-11T00:11:04.187Z,15.41
2022-10-11T00:13:32.174Z,15.40
2022-10-11T00:16:00.043Z,15.39
2022-10-11T00:18:27.809Z,15.38
2022-10-11T00:21:04.836Z,15.37
2022-10-11T00:23:33.425Z,15.36
2022-10-11T00:26:05.087Z,15.35
2022-10-11T00:28:34.008Z,15.34
2022-10-11T00:31:05.531Z,15.34
2022-10-11T00:33:33.944Z,15.34
2022-10-11T00:36:02.480Z,15.32
2022-10-11T00:38:32.058Z,15.31
2022-10-11T00:41:01.242Z,15.30
2022-10-11T00:43:30.937Z,15.29
2022-10-11T00:46:00.897Z,15.30
2022-10-11T00:48:34.142Z,15.31
2022-10-11T00:51:06.577Z,15.33
2022-10-11T00:53:35.098Z,15.33
2022-10-11T00:56:09.847Z,15.34
2022-10-11T00:58:38.763Z,15.35
2022-10-11T01:01:07.301Z,15.35
2022-10-11T01:03:37.962Z,15.34
2022-10-11T01:06:06.271Z,15.32
2022-10-11T01:08:34.504Z,15.30
2022-10-11T01:11:02.810Z,15.28
2022-10-11T01:13:36.707Z,15.27
2022-10-11T01:16:35.459Z,15.27
2022-10-11T01:19:24.417Z,15.28
2022-10-11T01:22:06.691Z,15.26
2022-10-11T01:24:43.273Z,15.24
2022-10-11T01:27:38.767Z,15.24
2022-10-11T01:30:27.395Z,15.22
2022-10-11T01:33:06.560Z,15.18
2022-10-11T01:35:37.518Z,15.16
2022-10-11T01:38:11.838Z,15.16
2022-10-11T01:40:48.826Z,15.16
2022-10-11T01:43:19.468Z,15.14
2022-10-11T01:45:50.148Z,15.15
2022-10-11T01:48:18.225Z,15.15
2022-10-11T01:50:47.982Z,15.14
2022-10-11T01:53:44.325Z,15.14
2022-10-11T01:56:49.318Z,15.15
2022-10-11T02:00:11.409Z,15.13
2022-10-11T02:03:00.865Z,15.14
2022-10-11T02:05:36.311Z,15.15
2022-10-11T02:08:19.520Z,15.16
2022-10-11T02:10:53.878Z,15.16
2022-10-11T02:13:44.368Z,15.17
2022-10-11T02:16:17.021Z,15.17
2022-10-11T02:18:51.747Z,15.18
2022-10-11T02:21:22.384Z,15.17
2022-10-11T02:23:57.426Z,15.17
2022-10-11T02:26:30.043Z,15.17
2022-10-11T02:29:01.635Z,15.15
2022-10-11T02:31:33.003Z,15.16
2022-10-11T02:34:15.225Z,15.17
2022-10-11T02:37:10.536Z,15.17
2022-10-11T02:39:47.217Z,15.17
2022-10-11T02:42:20.126Z,15.18
2022-10-11T02:44:59.727Z,15.17
2022-10-11T02:47:30.788Z,15.17
2022-10-11T02:50:00.164Z,15.14
2022-10-11T02:52:28.230Z,15.10
2022-10-11T02:54:56.265Z,15.08
2022-10-11T02:57:24.432Z,15.09
2022-10-11T02:59:52.597Z,15.11
2022-10-11T03:02:20.708Z,15.13
2022-10-11T03:04:48.741Z,15.13
2022-10-11T03:07:16.654Z,15.14
2022-10-11T03:09:45.189Z,15.15
2022-10-11T03:12:14.597Z,15.15
2022-10-11T03:14:42.394Z,15.17
2022-10-11T03:17:34.482Z,15.20
2022-10-11T03:19:58.416Z,15.20
2022-10-11T03:22:26.704Z,15.20
2022-10-11T03:24:54.430Z,15.19
2022-10-11T03:27:22.189Z,15.21
2022-10-11T03:29:50.263Z,15.24
2022-10-11T03:32:18.453Z,15.25
2022-10-11T03:34:46.359Z,15.27
2022-10-11T03:37:14.422Z,15.29
2022-10-11T03:39:42.261Z,15.29
2022-10-11T03:42:10.321Z,15.28
2022-10-11T03:44:39.020Z,15.26
2022-10-11T03:47:06.967Z,15.27
2022-10-11T03:49:36.830Z,15.27
2022-10-11T03:52:06.893Z,15.29
2022-10-11T03:54:34.634Z,15.30
2022-10-11T03:57:03.203Z,15.32
2022-10-11T03:59:31.450Z,15.33
2022-10-11T04:01:59.402Z,15.34
2022-10-11T04:04:27.637Z,15.34
2022-10-11T04:06:55.443Z,15.34
2022-10-11T04:09:23.551Z,15.34
2022-10-11T04:11:51.486Z,15.33
2022-10-11T04:14:19.706Z,15.34
2022-10-11T04:16:47.594Z,15.33
2022-10-11T04:19:15.563Z,15.31
2022-10-11T04:21:43.834Z,15.30
2022-10-11T04:24:12.574Z,15.31
2022-10-11T04:26:40.408Z,15.29
2022-10-11T04:29:08.338Z,15.26
2022-10-11T04:31:36.133Z,15.25
2022-10-11T04:34:03.968Z,15.24
2022-10-11T04:36:34.034Z,15.25
2022-10-11T04:39:02.251Z,15.25
2022-10-11T04:41:30.387Z,15.22
2022-10-11T04:43:58.100Z,15.19
2022-10-11T04:46:26.688Z,15.18
2022-10-11T04:48:55.046Z,15.16
2022-10-11T04:51:23.518Z,15.16
2022-10-11T04:53:51.771Z,15.15
2022-10-11T04:56:19.752Z,15.12
2022-10-11T04:58:49.460Z,15.10
2022-10-11T05:01:17.530Z,15.12
2022-10-11T05:03:45.342Z,15.15
2022-10-11T05:06:14.072Z,15.17
2022-10-11T05:08:42.413Z,15.20
2022-10-11T05:11:15.766Z,15.22
2022-10-11T05:13:45.797Z,15.24
2022-10-11T05:16:14.789Z,15.26
2022-10-11T05:18:43.041Z,15.28
2022-10-11T05:21:20.227Z,15.28
2022-10-11T05:23:49.732Z,15.31
2022-10-11T05:26:18.831Z,15.33
2022-10-11T05:28:47.993Z,15.36
2022-10-11T05:31:16.642Z,15.40
2022-10-11T05:33:44.818Z,15.44
2022-10-11T05:36:13.424Z,15.46
2022-10-11T05:38:41.701Z,15.49
2022-10-11T05:41:14.280Z,15.53
2022-10-11T05:43:42.850Z,15.57
2022-10-11T05:46:10.901Z,15.61
2022-10-11T05:48:39.180Z,15.64
2022-10-11T05:51:09.945Z,15.68
2022-10-11T05:53:39.015Z,15.72
2022-10-11T05:56:21.137Z,15.75
2022-10-11T05:58:50.167Z,15.79
2022-10-11T06:01:21.098Z,15.84
2022-10-11T06:03:49.306Z,15.86
2022-10-11T06:06:17.790Z,15.89
2022-10-11T06:08:46.345Z,15.91
2022-10-11T06:11:21.894Z,15.94
2022-10-11T06:13:49.801Z,15.97
2022-10-11T06:16:17.842Z,16.01
2022-10-11T06:18:46.067Z,16.04
2022-10-11T06:21:13.889Z,16.08
2022-10-11T06:23:41.765Z,16.11
2022-10-11T06:26:10.944Z,16.14
2022-10-11T06:28:39.157Z,16.16
2022-10-11T06:31:07.305Z,16.19
2022-10-11T06:33:35.685Z,16.22
2022-10-11T06:36:07.091Z,16.27
2022-10-11T06:38:35.571Z,16.29
2022-10-11T06:41:24.048Z,16.33
2022-10-11T06:43:52.368Z,16.38
2022-10-11T06:46:22.677Z,16.40
2022-10-11T06:48:51.548Z,16.42
2022-10-11T06:51:22.082Z,16.44
2022-10-11T06:53:56.182Z,16.48
2022-10-11T06:56:26.049Z,16.50
2022-10-11T06:58:55.229Z,16.54
2022-10-11T07:01:24.055Z,16.59
2022-10-11T07:03:54.386Z,16.64
2022-10-11T07:06:25.034Z,16.66
2022-10-11T07:08:54.106Z,16.70
2022-10-11T07:11:24.952Z,16.75
2022-10-11T07:13:58.606Z,16.77
2022-10-11T07:16:28.677Z,16.81
2022-10-11T07:19:01.222Z,16.86
2022-10-11T07:21:32.624Z,16.89
2022-10-11T07:24:01.284Z,16.92
2022-10-11T07:26:36.686Z,16.96
2022-10-11T07:29:08.307Z,16.98
2022-10-11T07:31:38.431Z,17.02
2022-10-11T07:34:06.359Z,17.09
2022-10-11T07:36:34.729Z,17.17
2022-10-11T07:39:07.900Z,17.25
2022-10-11T07:41:38.842Z,17.31
2022-10-11T07:44:08.489Z,17.35
2022-10-11T07:46:36.980Z,17.38
2022-10-11T07:49:05.158Z,17.41
2022-10-11T07:51:33.251Z,17.44
2022-10-11T07:54:06.139Z,17.49
2022-10-11T07:56:37.036Z,17.53
2022-10-11T07:59:05.246Z,17.55
2022-10-11T08:01:33.340Z,17.58
2022-10-11T08:04:01.273Z,17.61
2022-10-11T08:06:32.479Z,17.67
2022-10-11T08:09:01.750Z,17.70
2022-10-11T08:11:32.636Z,17.74
2022-10-11T08:14:01.734Z,17.80
2022-10-11T08:16:30.056Z,17.83
2022-10-11T08:18:58.088Z,17.88
2022-10-11T08:21:26.953Z,17.92
2022-10-11T08:23:55.157Z,17.97
2022-10-11T08:26:24.080Z,18.03
2022-10-11T08:28:52.295Z,18.08
2022-10-11T08:31:20.379Z,18.16
2022-10-11T08:33:48.148Z,18.25
2022-10-11T08:36:15.992Z,18.33
2022-10-11T08:38:43.942Z,18.37
2022-10-11T08:41:20.687Z,18.42
2022-10-11T08:44:14.551Z,18.48
2022-10-11T08:46:48.959Z,18.54
2022-10-11T08:49:20.391Z,18.60
2022-10-11T08:52:00.371Z,18.67
2022-10-11T08:54:40.689Z,18.74
2022-10-11T08:57:14.956Z,18.82
2022-10-11T08:59:51.103Z,18.90
2022-10-11T09:03:06.306Z,18.98
2022-10-11T09:05:34.250Z,19.06
2022-10-11T09:08:18.552Z,19.12
2022-10-11T09:11:10.309Z,19.21
2022-10-11T09:13:51.987Z,19.31
2022-10-11T09:16:58.873Z,19.40
2022-10-11T09:19:46.676Z,19.50
2022-10-11T09:22:30.336Z,19.55
2022-10-11T09:25:15.455Z,19.64
2022-10-11T09:28:20.413Z,19.77
2022-10-11T09:30:52.518Z,19.88
2022-10-11T09:33:32.371Z,19.92
2022-10-11T09:36:01.813Z,20.02
2022-10-11T09:38:41.121Z,20.13
2022-10-11T09:41:25.524Z,20.18
2022-10-11T09:43:54.639Z,20.20
2022-10-11T09:46:29.841Z,20.26
2022-10-11T09:48:58.094Z,20.37
2022-10-11T09:51:28.336Z,20.47
2022-10-11T09:54:02.650Z,20.56
2022-10-11T09:56:33.608Z,20.54
2022-10-11T09:59:29.680Z,20.61
2022-10-11T10:02:13.059Z,20.67
2022-10-11T10:05:08.475Z,20.74
2022-10-11T10:07:41.264Z,20.84
2022-10-11T10:10:30.039Z,20.92
2022-10-11T10:13:01.637Z,20.96
2022-10-11T10:15:35.951Z,21.03
2022-10-11T10:18:10.784Z,21.11
2022-10-11T10:20:39.002Z,21.08
2022-10-11T10:23:21.835Z,21.14
2022-10-11T10:25:51.976Z,21.18
2022-10-11T10:28:26.661Z,21.19
2022-10-11T10:30:57.891Z,21.20
2022-10-11T10:33:30.815Z,21.23
2022-10-11T10:36:05.489Z,21.26
2022-10-11T10:38:36.556Z,21.28
2022-10-11T10:41:09.543Z,21.28
2022-10-11T10:43:40.439Z,21.26
2022-10-11T10:46:27.109Z,21.24
2022-10-11T10:49:34.912Z,21.20
2022-10-11T10:52:11.305Z,21.09
2022-10-11T10:55:03.222Z,21.05
2022-10-11T10:58:13.906Z,21.08
2022-10-11T11:00:50.201Z,21.08
2022-10-11T11:03:41.896Z,21.10
2022-10-11T11:06:26.707Z,21.16
2022-10-11T11:09:14.151Z,21.15
2022-10-11T11:12:08.545Z,21.19
2022-10-11T11:14:44.139Z,21.26
2022-10-11T11:17:23.390Z,21.31
2022-10-11T11:20:08.975Z,21.35
2022-10-11T11:23:00.121Z,21.40
2022-10-11T11:25:49.267Z,21.43
2022-10-11T11:28:55.098Z,21.46
2022-10-11T11:31:25.978Z,21.50
2022-10-11T11:34:05.423Z,21.50
2022-10-11T11:36:48.921Z,21.52
2022-10-11T11:39:21.660Z,21.54
2022-10-11T11:41:58.556Z,21.56
2022-10-11T11:44:37.819Z,21.57
2022-10-11T11:47:12.513Z,21.59
2022-10-11T11:49:46.244Z,21.57
2022-10-11T11:52:27.080Z,21.56
2022-10-11T11:55:37.878Z,21.61
2022-10-11T11:58:17.933Z,21.67
2022-10-11T12:01:04.741Z,21.71
2022-10-11T12:03:41.593Z,21.77
2022-10-11T12:06:28.834Z,21.85
2022-10-11T12:09:23.109Z,21.90
2022-10-11T12:12:04.404Z,21.96
2022-10-11T12:14:32.401Z,22.03
2022-10-11T12:17:15.803Z,22.09
2022-10-11T12:20:08.800Z,22.04
2022-10-11T12:22:50.753Z,21.93
2022-10-11T12:25:22.012Z,21.88
2022-10-11T12:27:53.322Z,21.87
2022-10-11T12:30:39.861Z,21.94
2022-10-11T12:33:22.993Z,21.98
2022-10-11T12:35:54.061Z,21.96
2022-10-11T12:38:29.450Z,22.02
2022-10-11T12:41:19.021Z,22.04
2022-10-11T12:43:50.458Z,22.00
2022-10-11T12:46:31.164Z,21.98
2022-10-11T12:49:01.786Z,21.95
2022-10-11T12:51:42.342Z,21.92
2022-10-11T12:54:36.763Z,21.96
2022-10-11T12:57:41.424Z,22.09
2022-10-11T13:00:29.493Z,22.14
2022-10-11T13:03:05.892Z,22.19
2022-10-11T13:05:49.688Z,22.23
2022-10-11T13:08:31.534Z,22.23
2022-10-11T13:11:04.378Z,22.19
2022-10-11T13:13:38.047Z,22.12
2022-10-11T13:16:16.912Z,22.04
2022-10-11T13:18:47.555Z,21.98
2022-10-11T13:21:26.877Z,21.94
2022-10-11T13:23:59.889Z,21.89
2022-10-11T13:26:30.596Z,21.87
2022-10-11T13:29:00.396Z,21.81
2022-10-11T13:31:28.754Z,21.74
2022-10-11T13:33:59.208Z,21.73
2022-10-11T13:36:27.599Z,21.68
2022-10-11T13:39:01.548Z,21.66
2022-10-11T13:41:31.863Z,21.66
2022-10-11T13:44:00.501Z,21.66
2022-10-11T13:46:30.690Z,21.67
2022-10-11T13:49:25.738Z,21.70
2022-10-11T13:52:00.734Z,21.67
2022-10-11T13:54:53.715Z,21.64
2022-10-11T13:57:36.479Z,21.59
2022-10-11T14:00:22.778Z,21.53
2022-10-11T14:02:59.159Z,21.53
2022-10-11T14:05:37.053Z,21.54
2022-10-11T14:08:18.426Z,21.51
2022-10-11T14:10:50.740Z,21.47
2022-10-11T14:13:44.543Z,21.40
2022-10-11T14:16:13.619Z,21.36
2022-10-11T14:18:50.754Z,21.34
2022-10-11T14:21:34.795Z,21.33
2022-10-11T14:24:05.596Z,21.27
2022-10-11T14:26:39.765Z,21.23
2022-10-11T14:29:13.034Z,21.20
2022-10-11T14:31:42.271Z,21.17
2022-10-11T14:34:17.491Z,21.10
2022-10-11T14:36:45.619Z,21.05
2022-10-11T14:39:16.898Z,21.00
2022-10-11T14:41:46.038Z,20.98
2022-10-11T14:44:15.158Z,20.99
2022-10-11T14:46:43.816Z,20.98
2022-10-11T14:49:20.317Z,20.98
2022-10-11T14:51:50.007Z,20.93
2022-10-11T14:54:22.551Z,20.88
2022-10-11T14:56:52.845Z,20.86
2022-10-11T14:59:22.109Z,20.83
2022-10-11T15:01:54.294Z,20.81
2022-10-11T15:04:25.138Z,20.77
2022-10-11T15:06:55.812Z,20.71
2022-10-11T15:09:30.288Z,20.64
2022-10-11T15:11:59.119Z,20.58
2022-10-11T15:14:27.234Z,20.56
2022-10-11T15:16:56.420Z,20.51
2022-10-11T15:19:25.451Z,20.46
2022-10-11T15:21:53.754Z,20.42
2022-10-11T15:24:21.605Z,20.39
2022-10-11T15:26:49.808Z,20.38
2022-10-11T15:29:18.336Z,20.35
2022-10-11T15:31:46.512Z,20.31
2022-10-11T15:34:14.379Z,20.25
2022-10-11T15:36:42.856Z,20.21
2022-10-11T15:39:26.952Z,20.18
2022-10-11T15:41:55.095Z,20.16
2022-10-11T15:44:23.187Z,20.12
2022-10-11T15:46:51.861Z,20.10
2022-10-11T15:49:19.681Z,20.08
2022-10-11T15:51:48.228Z,20.02
2022-10-11T15:54:16.359Z,19.94
2022-10-11T15:56:44.322Z,19.90
2022-10-11T15:59:12.999Z,19.82
2022-10-11T16:01:40.930Z,19.71
2022-10-11T16:04:09.583Z,19.70
2022-10-11T16:06:37.398Z,19.69
2022-10-11T16:09:05.433Z,19.64
2022-10-11T16:11:33.246Z,19.61
2022-10-11T16:14:01.284Z,19.58
2022-10-11T16:16:29.038Z,19.55
2022-10-11T16:18:57.001Z,19.52
2022-10-11T16:21:25.016Z,19.53
2022-10-11T16:23:52.848Z,19.54
2022-10-11T16:26:20.967Z,19.51
2022-10-11T16:28:49.135Z,19.50
2022-10-11T16:31:20.672Z,19.49
2022-10-11T16:33:49.118Z,19.49
2022-10-11T16:36:36.311Z,19.45
2022-10-11T16:39:11.174Z,19.44
2022-10-11T16:41:39.397Z,19.42
2022-10-11T16:44:13.366Z,19.42
2022-10-11T16:46:42.704Z,19.41
2022-10-11T16:49:10.800Z,19.37
2022-10-11T16:51:38.998Z,19.35
2022-10-11T16:54:07.820Z,19.34
2022-10-11T16:56:39.728Z,19.34
2022-10-11T16:59:08.362Z,19.32
2022-10-11T17:01:37.633Z,19.31
2022-10-11T17:04:06.012Z,19.34
2022-10-11T17:06:34.094Z,19.35
2022-10-11T17:09:03.259Z,19.36
2022-10-11T17:11:31.353Z,19.36
2022-10-11T17:14:00.817Z,19.35
2022-10-11T17:16:29.184Z,19.34
2022-10-11T17:18:57.300Z,19.33
2022-10-11T17:21:25.446Z,19.32
2022-10-11T17:23:53.225Z,19.31
2022-10-11T17:26:26.753Z,19.28
2022-10-11T17:28:56.510Z,19.25
2022-10-11T17:31:25.253Z,19.22
2022-10-11T17:33:55.035Z,19.20
2022-10-11T17:36:27.766Z,19.16
2022-10-11T17:38:56.623Z,19.15
2022-10-11T17:41:29.430Z,19.13
2022-10-11T17:44:00.095Z,19.12
2022-10-11T17:46:32.433Z,19.09
2022-10-11T17:49:02.274Z,19.05
2022-10-11T17:51:30.926Z,19.04
2022-10-11T17:53:58.736Z,19.02
2022-10-11T17:56:31.354Z,18.98
2022-10-11T17:59:01.802Z,18.97
2022-10-11T18:01:30.257Z,18.96
2022-10-11T18:04:00.489Z,18.94
2022-10-11T18:06:31.368Z,18.95
2022-10-11T18:09:03.262Z,18.92
2022-10-11T18:11:31.628Z,18.87
2022-10-11T18:13:59.510Z,18.85
2022-10-11T18:16:29.919Z,18.82
2022-10-11T18:18:58.801Z,18.82
2022-10-11T18:21:33.662Z,18.81
2022-10-11T18:24:04.909Z,18.80
2022-10-11T18:26:33.556Z,18.80
2022-10-11T18:29:01.538Z,18.76
2022-10-11T18:31:34.129Z,18.73
2022-10-11T18:34:03.971Z,18.68
2022-10-11T18:36:32.880Z,18.68
2022-10-11T18:39:04.500Z,18.65
2022-10-11T18:41:34.167Z,18.59
2022-10-11T18:44:05.894Z,18.57
2022-10-11T18:46:34.688Z,18.57
2022-10-11T18:49:02.907Z,18.57
2022-10-11T18:51:36.464Z,18.58
2022-10-11T18:54:06.202Z,18.60
2022-10-11T18:56:37.051Z,18.61
2022-10-11T18:59:06.315Z,18.63
2022-10-11T19:01:38.528Z,18.60
2022-10-11T19:04:09.053Z,18.56
2022-10-11T19:06:40.634Z,18.54
2022-10-11T19:09:14.683Z,18.52
2022-10-11T19:11:42.831Z,18.49
2022-10-11T19:14:14.906Z,18.46
2022-10-11T19:16:49.086Z,18.44
2022-10-11T19:19:23.025Z,18.41
2022-10-11T19:21:51.604Z,18.38
2022-10-11T19:24:22.336Z,18.34
2022-10-11T19:26:51.682Z,18.33
2022-10-11T19:29:22.759Z,18.30
2022-10-11T19:31:55.558Z,18.30
2022-10-11T19:34:27.761Z,18.30
2022-10-11T19:36:56.500Z,18.28
2022-10-11T19:39:24.792Z,18.26
2022-10-11T19:41:52.971Z,18.24
2022-10-11T19:44:20.989Z,18.22
2022-10-11T19:46:52.075Z,18.21
2022-10-11T19:49:25.309Z,18.20
2022-10-11T19:51:55.330Z,18.19
2022-10-11T19:54:23.996Z,18.19
2022-10-11T19:56:52.970Z,18.18
2022-10-11T19:59:21.020Z,18.13
2022-10-11T20:01:52.697Z,18.11
2022-10-11T20:07:09.621Z,18.09
2022-10-11T20:09:37.900Z,18.07
2022-10-11T20:12:06.272Z,18.06
2022-10-11T20:14:34.137Z,18.05
2022-10-11T20:17:02.135Z,18.01
2022-10-11T20:19:31.262Z,17.96
2022-10-11T20:22:01.569Z,17.93
2022-10-11T20:24:33.750Z,17.92
2022-10-11T20:27:05.149Z,17.92
2022-10-11T20:29:33.685Z,17.92
2022-10-11T20:32:01.885Z,17.89
2022-10-11T20:34:30.596Z,17.88
2022-10-11T20:36:58.910Z,17.92
2022-10-11T20:39:26.974Z,17.94
2022-10-11T20:41:54.934Z,17.94
2022-10-11T20:44:22.927Z,17.96
2022-10-11T20:46:51.079Z,17.98
2022-10-11T20:49:20.085Z,17.97
2022-10-11T20:51:49.065Z,17.97
2022-10-11T20:54:17.362Z,17.95
2022-10-11T20:56:45.588Z,17.94
2022-10-11T20:59:13.577Z,17.95
2022-10-11T21:01:42.014Z,17.94
2022-10-11T21:04:17.840Z,17.93
2022-10-11T21:06:47.515Z,17.92
2022-10-11T21:09:16.965Z,17.90
2022-10-11T21:11:45.523Z,17.87
2022-10-11T21:14:14.221Z,17.87
2022-10-11T21:16:42.106Z,17.87
2022-10-11T21:19:13.841Z,17.87
2022-10-11T21:21:42.580Z,17.83
2022-10-11T21:24:10.409Z,17.82
2022-10-11T21:26:38.481Z,17.80
2022-10-11T21:29:06.406Z,17.80
2022-10-11T21:31:34.795Z,17.79
2022-10-11T21:34:05.254Z,17.77
2022-10-11T21:36:33.033Z,17.76
2022-10-11T21:39:01.181Z,17.77
2022-10-11T21:41:30.155Z,17.79
2022-10-11T21:43:58.504Z,17.79
2022-10-11T21:46:54.234Z,17.81
2022-10-11T21:49:17.270Z,17.82
2022-10-11T21:51:45.468Z,17.82
2022-10-11T21:54:13.239Z,17.85
2022-10-11T21:56:41.611Z,17.86
2022-10-11T21:59:12.370Z,17.87
2022-10-11T22:01:41.878Z,17.84
2022-10-11T22:04:11.359Z,17.82
2022-10-11T22:06:40.217Z,17.80
2022-10-11T22:09:08.828Z,17.79
2022-10-11T22:11:37.129Z,17.77
2022-10-11T22:14:05.274Z,17.76
2022-10-11T22:16:33.742Z,17.74
2022-10-11T22:19:02.226Z,17.71
2022-10-11T22:21:30.138Z,17.65
2022-10-11T22:23:58.441Z,17.62
2022-10-11T22:26:31.037Z,17.61
2022-10-11T22:29:00.696Z,17.63
2022-10-11T22:31:30.227Z,17.62
2022-10-11T22:34:00.359Z,17.60
2022-10-11T22:36:34.062Z,17.60
2022-10-11T22:39:07.761Z,17.61
2022-10-11T22:41:36.802Z,17.57
2022-10-11T22:44:04.871Z,17.53
2022-10-11T22:46:32.632Z,17.53
2022-10-11T22:49:00.480Z,17.54
2022-10-11T22:51:28.463Z,17.56
2022-10-11T22:53:56.573Z,17.58
2022-10-11T22:56:24.512Z,17.59
2022-10-11T22:58:52.351Z,17.60
2022-10-11T23:01:20.246Z,17.59
2022-10-11T23:03:50.686Z,17.60
2022-10-11T23:06:19.221Z,17.60
2022-10-11T23:08:47.114Z,17.59
2022-10-11T23:11:14.951Z,17.56
2022-10-11T23:13:42.796Z,17.54
2022-10-11T23:16:12.456Z,17.53
2022-10-11T23:18:40.343Z,17.50
2022-10-11T23:21:08.578Z,17.50
2022-10-11T23:23:37.173Z,17.50
2022-10-11T23:26:12.648Z,17.48
2022-10-11T23:28:41.040Z,17.49
2022-10-11T23:31:11.523Z,17.46
2022-10-11T23:33:39.729Z,17.44
2022-10-11T23:36:23.855Z,17.43
2022-10-11T23:38:53.662Z,17.43
2022-10-11T23:41:23.391Z,17.38
2022-10-11T23:43:51.560Z,17.33
2022-10-11T23:46:19.452Z,17.27
2022-10-11T23:48:47.962Z,17.22
2022-10-11T23:51:16.098Z,17.18
2022-10-11T23:53:44.320Z,17.17
2022-10-11T23:56:12.913Z,17.17
2022-10-11T23:58:41.157Z,17.14
